createdAt,value
2017-10-31T00:01:09.441Z,101720
2017-10-31T00:03:38.348Z,101712
2017-10-31T00:06:06.523Z,101713
2017-10-31T00:08:34.667Z,101713
2017-10-31T00:11:03.634Z,101708
2017-10-31T00:13:31.766Z,101716
2017-10-31T00:15:59.928Z,101704
2017-10-31T00:18:28.080Z,101695
2017-10-31T00:20:56.988Z,101702
2017-10-31T00:23:25.139Z,101705
2017-10-31T00:25:54.074Z,101703
2017-10-31T00:28:22.239Z,101694
2017-10-31T00:30:50.375Z,101684
2017-10-31T00:33:19.308Z,101701
2017-10-31T00:35:47.436Z,101687
2017-10-31T00:38:16.368Z,101700
2017-10-31T00:40:44.517Z,101694
2017-10-31T00:43:12.668Z,101701
2017-10-31T00:45:41.721Z,101692
2017-10-31T00:48:09.879Z,101702
2017-10-31T00:50:38.026Z,101696
2017-10-31T00:53:06.232Z,101691
2017-10-31T00:55:34.503Z,101698
2017-10-31T00:58:02.952Z,101694
2017-10-31T01:00:31.283Z,101701
2017-10-31T01:02:59.538Z,101696
2017-10-31T01:05:27.686Z,101697
2017-10-31T01:07:56.202Z,101698
2017-10-31T01:10:24.352Z,101692
2017-10-31T01:12:52.498Z,101702
2017-10-31T01:15:21.443Z,101700
2017-10-31T01:17:49.579Z,101703
2017-10-31T01:20:17.777Z,101703
2017-10-31T01:22:45.941Z,101699
2017-10-31T01:25:14.079Z,101701
2017-10-31T01:27:42.958Z,101698
2017-10-31T01:30:11.901Z,101694
2017-10-31T01:32:40.056Z,101698
2017-10-31T01:35:08.202Z,101699
2017-10-31T01:37:36.410Z,101695
2017-10-31T01:40:04.567Z,101695
2017-10-31T01:42:32.750Z,101696
2017-10-31T01:45:00.907Z,101693
2017-10-31T01:47:29.117Z,101691
2017-10-31T01:49:57.272Z,101696
2017-10-31T01:52:25.420Z,101690
2017-10-31T01:54:53.626Z,101696
2017-10-31T01:57:21.782Z,101690
2017-10-31T01:59:49.931Z,101697
2017-10-31T02:02:18.140Z,101696
2017-10-31T02:04:46.277Z,101697
2017-10-31T02:07:15.203Z,101690
2017-10-31T02:09:43.347Z,101688
2017-10-31T02:12:11.551Z,101691
2017-10-31T02:14:39.690Z,101677
2017-10-31T02:17:08.712Z,101684
2017-10-31T02:19:36.845Z,101679
2017-10-31T02:22:05.818Z,101676
2017-10-31T02:24:33.951Z,101679
2017-10-31T02:27:02.095Z,101677
2017-10-31T02:29:30.250Z,101675
2017-10-31T02:31:59.160Z,101677
2017-10-31T02:34:27.368Z,101671
2017-10-31T02:36:55.514Z,101674
2017-10-31T02:39:23.710Z,101676
2017-10-31T02:41:51.856Z,101676
2017-10-31T02:44:20.012Z,101680
2017-10-31T02:46:48.938Z,101683
2017-10-31T02:49:17.114Z,101683
2017-10-31T02:51:45.291Z,101690
2017-10-31T02:54:13.436Z,101683
2017-10-31T02:56:41.598Z,101678
2017-10-31T02:59:10.555Z,101679
2017-10-31T03:01:38.801Z,101674
2017-10-31T03:04:06.979Z,101676
2017-10-31T03:06:35.129Z,101674
2017-10-31T03:09:03.259Z,101679
2017-10-31T03:11:31.412Z,101680
2017-10-31T03:13:59.558Z,101682
2017-10-31T03:16:27.699Z,101681
2017-10-31T03:18:55.856Z,101686
2017-10-31T03:21:24.755Z,101682
2017-10-31T03:23:53.684Z,101692
2017-10-31T03:26:21.819Z,101684
2017-10-31T03:28:50.743Z,101683
2017-10-31T03:31:18.890Z,101688
2017-10-31T03:33:47.058Z,101689
2017-10-31T03:36:15.303Z,101677
2017-10-31T03:38:44.258Z,101685
2017-10-31T03:41:12.403Z,101691
2017-10-31T03:43:40.611Z,101691
2017-10-31T03:46:08.758Z,101681
2017-10-31T03:48:37.635Z,101682
2017-10-31T03:51:05.799Z,101675
2017-10-31T03:53:34.705Z,101682
2017-10-31T03:56:02.861Z,101680
2017-10-31T03:58:31.766Z,101682
2017-10-31T04:00:59.926Z,101676
2017-10-31T04:03:28.068Z,101675
2017-10-31T04:05:56.256Z,101676
2017-10-31T04:08:24.399Z,101682
2017-10-31T04:10:52.539Z,101678
2017-10-31T04:13:20.698Z,101679
2017-10-31T04:15:48.842Z,101677
2017-10-31T04:18:17.770Z,101681
2017-10-31T04:20:45.955Z,101680
2017-10-31T04:23:14.112Z,101677
2017-10-31T04:25:42.257Z,101688
2017-10-31T04:28:11.188Z,101678
2017-10-31T04:30:39.362Z,101680
2017-10-31T04:33:07.865Z,101686
2017-10-31T04:35:36.006Z,101686
2017-10-31T04:38:04.149Z,101684
2017-10-31T04:40:33.077Z,101688
2017-10-31T04:43:01.218Z,101691
2017-10-31T04:45:30.133Z,101682
2017-10-31T04:47:58.270Z,101683
2017-10-31T04:50:27.186Z,101689
2017-10-31T04:52:55.325Z,101687
2017-10-31T04:55:24.246Z,101687
2017-10-31T04:57:52.378Z,101685
2017-10-31T05:00:21.330Z,101682
2017-10-31T05:02:49.471Z,101679
2017-10-31T05:05:18.362Z,101673
2017-10-31T05:07:47.402Z,101677
2017-10-31T05:10:15.530Z,101672
2017-10-31T05:12:44.453Z,101671
2017-10-31T05:15:13.106Z,101664
2017-10-31T05:17:41.259Z,101676
2017-10-31T05:20:09.893Z,101679
2017-10-31T05:22:38.054Z,101670
2017-10-31T05:25:06.771Z,101670
2017-10-31T05:27:35.040Z,101667
2017-10-31T05:30:03.191Z,101674
2017-10-31T05:32:31.364Z,101670
2017-10-31T05:34:59.518Z,101677
2017-10-31T05:37:27.653Z,101673
2017-10-31T05:39:56.582Z,101674
2017-10-31T05:42:25.101Z,101687
2017-10-31T05:44:53.359Z,101686
2017-10-31T05:47:21.513Z,101693
2017-10-31T05:49:49.714Z,101697
2017-10-31T05:52:17.860Z,101698
2017-10-31T05:54:46.040Z,101701
2017-10-31T05:57:14.278Z,101710
2017-10-31T05:59:43.185Z,101698
2017-10-31T06:02:11.344Z,101700
2017-10-31T06:04:40.271Z,101704
2017-10-31T06:07:08.423Z,101710
2017-10-31T06:09:36.571Z,101715
2017-10-31T06:12:05.491Z,101716
2017-10-31T06:14:33.630Z,101713
2017-10-31T06:17:01.786Z,101721
2017-10-31T06:19:29.928Z,101723
2017-10-31T06:22:03.790Z,101720
2017-10-31T06:24:38.287Z,101728
2017-10-31T06:27:11.976Z,101729
2017-10-31T06:32:43.098Z,101734
2017-10-31T06:35:11.298Z,101739
2017-10-31T06:37:39.478Z,101738
2017-10-31T06:40:07.619Z,101745
2017-10-31T06:42:35.758Z,101743
2017-10-31T06:45:05.476Z,101747
2017-10-31T06:47:33.637Z,101754
2017-10-31T06:50:01.793Z,101742
2017-10-31T06:52:29.949Z,101742
2017-10-31T06:54:58.115Z,101739
2017-10-31T06:57:26.267Z,101744
2017-10-31T06:59:54.427Z,101745
2017-10-31T07:02:22.574Z,101743
2017-10-31T07:04:51.616Z,101750
2017-10-31T07:07:19.750Z,101745
2017-10-31T07:09:48.689Z,101752
2017-10-31T07:12:16.973Z,101747
2017-10-31T07:14:45.911Z,101755
2017-10-31T07:17:14.838Z,101766
2017-10-31T07:19:42.982Z,101756
2017-10-31T07:22:11.154Z,101763
2017-10-31T07:24:39.525Z,101757
2017-10-31T07:27:07.691Z,101754
2017-10-31T07:29:36.613Z,101767
2017-10-31T07:32:04.787Z,101764
2017-10-31T07:34:32.938Z,101762
2017-10-31T07:37:01.637Z,101767
2017-10-31T07:39:29.863Z,101769
2017-10-31T07:41:58.694Z,101766
2017-10-31T07:44:26.865Z,101768
2017-10-31T07:46:55.522Z,101757
2017-10-31T07:49:24.498Z,101771
2017-10-31T07:51:52.646Z,101762
2017-10-31T07:54:20.804Z,101776
2017-10-31T07:56:48.939Z,101767
2017-10-31T07:59:17.894Z,101774
2017-10-31T08:01:46.059Z,101786
2017-10-31T08:04:14.318Z,101772
2017-10-31T08:06:42.528Z,101777
2017-10-31T08:09:10.769Z,101773
2017-10-31T08:11:38.898Z,101775
2017-10-31T08:14:07.818Z,101775
2017-10-31T08:16:35.963Z,101775
2017-10-31T08:19:04.876Z,101769
2017-10-31T08:21:33.023Z,101773
2017-10-31T08:24:01.934Z,101780
2017-10-31T08:26:30.140Z,101775
2017-10-31T08:28:58.283Z,101781
2017-10-31T08:31:26.495Z,101782
2017-10-31T08:33:54.634Z,101774
2017-10-31T08:36:22.794Z,101787
2017-10-31T08:38:50.935Z,101781
2017-10-31T08:41:19.130Z,101781
2017-10-31T08:43:48.048Z,101783
2017-10-31T08:46:16.195Z,101784
2017-10-31T08:48:45.122Z,101776
2017-10-31T08:51:13.281Z,101774
2017-10-31T08:53:41.437Z,101778
2017-10-31T08:56:09.590Z,101788
2017-10-31T08:58:38.524Z,101786
2017-10-31T09:01:06.678Z,101792
2017-10-31T09:03:34.835Z,101796
2017-10-31T09:06:03.741Z,101792
2017-10-31T09:08:31.887Z,101783
2017-10-31T09:11:01.007Z,101801
2017-10-31T09:13:29.189Z,101793
2017-10-31T09:15:57.326Z,101788
2017-10-31T09:18:25.553Z,101783
2017-10-31T09:20:53.740Z,101785
2017-10-31T09:23:21.907Z,101782
2017-10-31T09:25:50.076Z,101789
2017-10-31T09:28:18.226Z,101788
2017-10-31T09:30:46.387Z,101782
2017-10-31T09:33:14.535Z,101778
2017-10-31T09:35:42.702Z,101789
2017-10-31T09:38:10.863Z,101788
2017-10-31T09:40:39.032Z,101790
2017-10-31T09:43:07.179Z,101778
2017-10-31T09:45:35.351Z,101788
2017-10-31T09:48:03.598Z,101790
2017-10-31T09:50:31.798Z,101782
2017-10-31T09:52:59.941Z,101793
2017-10-31T09:55:28.086Z,101789
2017-10-31T09:57:56.253Z,101781
2017-10-31T10:00:24.393Z,101784
2017-10-31T10:02:52.550Z,101789
2017-10-31T10:05:20.752Z,101780
2017-10-31T10:07:48.916Z,101785
2017-10-31T10:10:17.084Z,101773
2017-10-31T10:12:45.257Z,101778
2017-10-31T10:15:13.925Z,101779
2017-10-31T10:17:42.088Z,101771
2017-10-31T10:20:10.247Z,101782
2017-10-31T10:22:39.205Z,101776
2017-10-31T10:25:07.354Z,101783
2017-10-31T10:27:35.545Z,101777
2017-10-31T10:30:03.799Z,101772
2017-10-31T10:32:32.080Z,101772
2017-10-31T10:35:00.243Z,101777
2017-10-31T10:37:28.394Z,101777
2017-10-31T10:39:56.570Z,101777
2017-10-31T10:42:24.716Z,101779
2017-10-31T10:44:53.647Z,101766
2017-10-31T10:47:21.840Z,101767
2017-10-31T10:49:50.770Z,101771
2017-10-31T10:52:20.516Z,101764
2017-10-31T10:54:48.689Z,101775
2017-10-31T10:57:16.863Z,101771
2017-10-31T10:59:45.031Z,101758
2017-10-31T11:02:13.178Z,101766
2017-10-31T11:04:42.107Z,101766
2017-10-31T11:07:10.266Z,101772
2017-10-31T11:09:38.551Z,101763
2017-10-31T11:12:06.726Z,101774
2017-10-31T11:14:34.895Z,101764
2017-10-31T11:17:03.075Z,101772
2017-10-31T11:19:31.246Z,101776
2017-10-31T11:21:59.523Z,101771
2017-10-31T11:24:27.660Z,101772
2017-10-31T11:26:56.592Z,101776
2017-10-31T11:29:24.760Z,101778
2017-10-31T11:31:52.938Z,101779
2017-10-31T11:34:21.097Z,101776
2017-10-31T11:36:49.283Z,101769
2017-10-31T11:39:17.430Z,101773
2017-10-31T11:41:45.611Z,101767
2017-10-31T11:44:13.778Z,101777
2017-10-31T11:46:41.974Z,101773
2017-10-31T11:49:10.123Z,101761
2017-10-31T11:51:38.292Z,101762
2017-10-31T11:54:06.491Z,101763
2017-10-31T11:56:34.675Z,101763
2017-10-31T11:59:02.868Z,101764
2017-10-31T12:01:31.083Z,101769
2017-10-31T12:03:59.272Z,101762
2017-10-31T12:06:27.444Z,101767
2017-10-31T12:08:55.606Z,101753
2017-10-31T12:11:23.755Z,101754
2017-10-31T12:13:52.728Z,101764
2017-10-31T12:16:20.958Z,101751
2017-10-31T12:18:49.121Z,101752
2017-10-31T12:21:17.311Z,101746
2017-10-31T12:23:45.477Z,101748
2017-10-31T12:26:13.628Z,101748
2017-10-31T12:28:41.771Z,101755
2017-10-31T12:31:09.930Z,101741
2017-10-31T12:33:38.079Z,101741
2017-10-31T12:36:07.093Z,101741
2017-10-31T12:38:35.242Z,101746
2017-10-31T12:41:03.406Z,101739
2017-10-31T12:43:31.547Z,101739
2017-10-31T12:46:00.482Z,101743
2017-10-31T12:48:28.643Z,101741
2017-10-31T12:50:56.808Z,101739
2017-10-31T12:53:24.951Z,101740
2017-10-31T12:55:53.129Z,101731
2017-10-31T12:58:21.274Z,101735
2017-10-31T13:00:49.446Z,101741
2017-10-31T13:03:18.371Z,101739
2017-10-31T13:05:46.529Z,101733
2017-10-31T13:08:15.451Z,101741
2017-10-31T13:10:43.641Z,101736
2017-10-31T13:13:11.790Z,101735
2017-10-31T13:15:39.928Z,101732
2017-10-31T13:18:09.255Z,101738
2017-10-31T13:20:38.150Z,101734
2017-10-31T13:23:06.344Z,101733
2017-10-31T13:25:34.546Z,101749
2017-10-31T13:28:03.062Z,101737
2017-10-31T13:30:32.642Z,101737
2017-10-31T13:33:02.441Z,101737
2017-10-31T13:35:32.327Z,101733
2017-10-31T13:38:01.254Z,101726
2017-10-31T13:40:30.371Z,101735
2017-10-31T13:42:59.119Z,101731
2017-10-31T13:45:28.750Z,101739
2017-10-31T13:47:57.712Z,101731
2017-10-31T13:50:25.862Z,101735
2017-10-31T13:52:54.011Z,101740
2017-10-31T13:55:23.040Z,101731
2017-10-31T13:57:51.196Z,101733
2017-10-31T14:00:19.725Z,101724
2017-10-31T14:02:49.018Z,101730
2017-10-31T14:05:18.559Z,101736
2017-10-31T14:07:48.436Z,101725
2017-10-31T14:10:18.968Z,101732
2017-10-31T14:12:48.162Z,101730
2017-10-31T14:15:16.328Z,101737
2017-10-31T14:17:44.482Z,101730
2017-10-31T14:20:23.186Z,101727
2017-10-31T14:22:51.361Z,101728
2017-10-31T14:25:19.551Z,101728
2017-10-31T14:27:47.695Z,101724
2017-10-31T14:30:15.867Z,101721
2017-10-31T14:32:44.069Z,101716
2017-10-31T14:35:12.246Z,101712
2017-10-31T14:37:40.444Z,101715
2017-10-31T14:40:08.612Z,101720
2017-10-31T14:42:36.754Z,101711
2017-10-31T14:45:04.927Z,101713
2017-10-31T14:47:33.641Z,101706
2017-10-31T14:50:01.895Z,101714
2017-10-31T14:52:30.046Z,101707
2017-10-31T14:54:58.897Z,101715
2017-10-31T14:57:27.892Z,101717
2017-10-31T14:59:56.428Z,101706
2017-10-31T15:02:24.647Z,101699
2017-10-31T15:04:53.871Z,101707
2017-10-31T15:07:22.062Z,101707
2017-10-31T15:09:50.237Z,101705
2017-10-31T15:12:18.411Z,101703
2017-10-31T15:14:46.567Z,101693
2017-10-31T15:17:14.731Z,101697
2017-10-31T15:19:42.887Z,101686
2017-10-31T15:22:11.834Z,101707
2017-10-31T15:24:39.991Z,101696
2017-10-31T15:27:08.155Z,101702
2017-10-31T15:29:36.312Z,101698
2017-10-31T15:32:04.487Z,101697
2017-10-31T15:34:32.650Z,101694
2017-10-31T15:37:00.794Z,101698
2017-10-31T15:39:29.751Z,101694
2017-10-31T15:41:57.890Z,101704
2017-10-31T15:44:26.054Z,101699
2017-10-31T15:46:54.920Z,101699
2017-10-31T15:49:23.082Z,101700
2017-10-31T15:51:51.232Z,101702
2017-10-31T15:54:19.507Z,101700
2017-10-31T15:56:47.648Z,101711
2017-10-31T15:59:15.810Z,101712
2017-10-31T16:01:43.955Z,101707
2017-10-31T16:04:12.186Z,101721
2017-10-31T16:06:40.332Z,101713
2017-10-31T16:09:08.514Z,101717
2017-10-31T16:11:36.655Z,101718
2017-10-31T16:14:05.606Z,101717
2017-10-31T16:16:33.751Z,101721
2017-10-31T16:19:01.896Z,101715
2017-10-31T16:21:30.823Z,101710
2017-10-31T16:23:58.954Z,101713
2017-10-31T16:26:27.878Z,101707
2017-10-31T16:28:56.031Z,101716
2017-10-31T16:31:24.253Z,101702
2017-10-31T16:33:52.409Z,101704
2017-10-31T16:36:20.795Z,101704
2017-10-31T16:38:48.948Z,101707
2017-10-31T16:41:17.119Z,101701
2017-10-31T16:43:45.271Z,101700
2017-10-31T16:46:14.195Z,101702
2017-10-31T16:48:42.344Z,101693
2017-10-31T16:51:10.515Z,101691
2017-10-31T16:53:38.652Z,101706
2017-10-31T16:56:07.299Z,101695
2017-10-31T16:58:35.466Z,101701
2017-10-31T17:01:03.612Z,101708
2017-10-31T17:03:32.546Z,101707
2017-10-31T17:06:00.687Z,101708
2017-10-31T17:08:28.850Z,101701
2017-10-31T17:10:57.951Z,101705
2017-10-31T17:13:26.127Z,101707
2017-10-31T17:15:54.266Z,101704
2017-10-31T17:18:22.450Z,101711
2017-10-31T17:20:51.366Z,101706
2017-10-31T17:23:19.664Z,101715
2017-10-31T17:25:47.805Z,101708
2017-10-31T17:28:15.968Z,101701
2017-10-31T17:30:45.173Z,101713
2017-10-31T17:33:13.376Z,101704
2017-10-31T17:35:41.567Z,101715
2017-10-31T17:38:09.712Z,101712
2017-10-31T17:40:37.887Z,101713
2017-10-31T17:43:06.077Z,101719
2017-10-31T17:45:34.222Z,101715
2017-10-31T17:48:02.426Z,101706
2017-10-31T17:50:30.696Z,101701
2017-10-31T17:52:58.837Z,101702
2017-10-31T17:55:27.297Z,101705
2017-10-31T17:57:55.455Z,101696
2017-10-31T18:00:24.398Z,101697
2017-10-31T18:02:52.540Z,101692
2017-10-31T18:05:20.716Z,101688
2017-10-31T18:07:48.859Z,101694
2017-10-31T18:10:18.605Z,101683
2017-10-31T18:12:46.801Z,101682
2017-10-31T18:15:14.971Z,101682
2017-10-31T18:17:43.249Z,101682
2017-10-31T18:20:11.382Z,101676
2017-10-31T18:22:40.533Z,101677
2017-10-31T18:25:08.683Z,101666
2017-10-31T18:27:36.842Z,101669
2017-10-31T18:30:05.246Z,101668
2017-10-31T18:32:33.420Z,101672
2017-10-31T18:35:01.564Z,101673
2017-10-31T18:37:29.727Z,101671
2017-10-31T18:39:57.882Z,101673
2017-10-31T18:42:26.810Z,101675
2017-10-31T18:44:54.977Z,101672
2017-10-31T18:47:23.175Z,101673
2017-10-31T18:49:51.342Z,101669
2017-10-31T18:52:20.290Z,101670
2017-10-31T18:54:48.477Z,101668
2017-10-31T18:57:16.630Z,101654
2017-10-31T18:59:45.560Z,101656
2017-10-31T19:02:14.150Z,101660
2017-10-31T19:04:42.328Z,101649
2017-10-31T19:07:10.478Z,101652
2017-10-31T19:09:38.635Z,101647
2017-10-31T19:12:06.774Z,101651
2017-10-31T19:14:34.937Z,101649
2017-10-31T19:17:03.103Z,101662
2017-10-31T19:19:31.275Z,101651
2017-10-31T19:21:59.436Z,101655
2017-10-31T19:24:27.604Z,101658
2017-10-31T19:26:55.768Z,101656
2017-10-31T19:29:23.923Z,101647
2017-10-31T19:31:52.078Z,101644
2017-10-31T19:34:20.985Z,101647
2017-10-31T19:36:49.142Z,101651
2017-10-31T19:39:18.050Z,101643
2017-10-31T19:41:46.214Z,101651
2017-10-31T19:44:14.359Z,101641
2017-10-31T19:46:42.518Z,101645
2017-10-31T19:49:10.670Z,101640
2017-10-31T19:51:38.939Z,101641
2017-10-31T19:54:07.090Z,101634
2017-10-31T19:56:35.259Z,101638
2017-10-31T19:59:03.470Z,101633
2017-10-31T20:01:31.740Z,101638
2017-10-31T20:03:59.885Z,101646
2017-10-31T20:06:28.070Z,101632
2017-10-31T20:08:56.223Z,101635
2017-10-31T20:11:24.419Z,101628
2017-10-31T20:13:52.583Z,101625
2017-10-31T20:16:20.726Z,101629
2017-10-31T20:18:49.655Z,101637
2017-10-31T20:21:17.859Z,101633
2017-10-31T20:23:46.028Z,101633
2017-10-31T20:26:14.952Z,101628
2017-10-31T20:28:43.888Z,101638
2017-10-31T20:31:12.573Z,101622
2017-10-31T20:33:40.730Z,101620
2017-10-31T20:36:08.920Z,101631
2017-10-31T20:38:37.397Z,101629
2017-10-31T20:41:05.545Z,101618
2017-10-31T20:43:33.711Z,101620
2017-10-31T20:46:01.855Z,101623
2017-10-31T20:48:31.294Z,101620
2017-10-31T20:50:59.435Z,101618
2017-10-31T20:53:28.439Z,101618
2017-10-31T20:55:57.375Z,101608
2017-10-31T20:58:25.536Z,101605
2017-10-31T21:00:54.138Z,101621
2017-10-31T21:03:22.297Z,101612
2017-10-31T21:05:50.467Z,101600
2017-10-31T21:08:18.618Z,101594
2017-10-31T21:10:46.784Z,101592
2017-10-31T21:13:14.938Z,101595
2017-10-31T21:15:44.004Z,101595
2017-10-31T21:18:12.156Z,101590
2017-10-31T21:20:40.332Z,101597
2017-10-31T21:23:08.508Z,101584
2017-10-31T21:25:36.682Z,101590
2017-10-31T21:28:05.342Z,101574
2017-10-31T21:30:33.757Z,101585
2017-10-31T21:33:02.922Z,101591
2017-10-31T21:35:31.112Z,101584
2017-10-31T21:37:59.374Z,101585
2017-10-31T21:40:27.547Z,101581
2017-10-31T21:42:55.712Z,101569
2017-10-31T21:45:23.865Z,101567
2017-10-31T21:47:52.030Z,101575
2017-10-31T21:50:20.964Z,101578
2017-10-31T21:52:49.540Z,101573
2017-10-31T21:55:17.691Z,101569
2017-10-31T21:57:45.871Z,101560
2017-10-31T22:00:14.040Z,101578
2017-10-31T22:02:42.222Z,101556
2017-10-31T22:05:10.383Z,101556
2017-10-31T22:07:38.548Z,101551
2017-10-31T22:10:06.687Z,101561
2017-10-31T22:12:34.824Z,101559
2017-10-31T22:15:02.986Z,101559
2017-10-31T22:17:31.174Z,101554
2017-10-31T22:19:59.859Z,101551
2017-10-31T22:22:28.003Z,101553
2017-10-31T22:24:56.207Z,101559
2017-10-31T22:27:24.354Z,101539
2017-10-31T22:29:52.514Z,101538
2017-10-31T22:32:20.666Z,101539
2017-10-31T22:34:49.628Z,101533
2017-10-31T22:37:17.770Z,101531
2017-10-31T22:39:45.969Z,101529
2017-10-31T22:42:14.115Z,101525
2017-10-31T22:44:42.283Z,101521
2017-10-31T22:47:10.435Z,101516
2017-10-31T22:49:39.557Z,101526
2017-10-31T22:52:08.386Z,101506
2017-10-31T22:54:36.523Z,101512
2017-10-31T22:57:04.719Z,101509
2017-10-31T22:59:33.383Z,101516
2017-10-31T23:02:01.550Z,101512
2017-10-31T23:04:29.685Z,101512
2017-10-31T23:06:58.613Z,101515
2017-10-31T23:09:26.743Z,101513
2017-10-31T23:11:55.671Z,101515
2017-10-31T23:14:23.837Z,101514
2017-10-31T23:16:51.984Z,101514
2017-10-31T23:19:20.126Z,101507
2017-10-31T23:21:48.274Z,101501
2017-10-31T23:24:17.193Z,101500
2017-10-31T23:26:45.372Z,101498
2017-10-31T23:29:13.517Z,101493
2017-10-31T23:31:41.967Z,101497
2017-10-31T23:34:10.120Z,101482
2017-10-31T23:36:39.650Z,101490
2017-10-31T23:39:07.810Z,101489
2017-10-31T23:41:35.953Z,101479
2017-10-31T23:44:04.119Z,101473
2017-10-31T23:46:32.705Z,101468
2017-10-31T23:49:01.426Z,101467
2017-10-31T23:51:29.562Z,101485
2017-10-31T23:53:58.508Z,101475
2017-10-31T23:56:26.654Z,101466
2017-10-31T23:58:54.829Z,101469
